createdAt,value
2023-04-28T00:00:51.867Z,2.50
2023-04-28T00:01:54.561Z,3.00
2023-04-28T00:02:57.529Z,3.60
2023-04-28T00:04:00.654Z,1.60
2023-04-28T00:05:03.442Z,3.20
2023-04-28T00:06:06.487Z,2.20
2023-04-28T00:07:09.197Z,2.80
2023-04-28T00:08:11.331Z,2.90
2023-04-28T00:09:14.072Z,2.10
2023-04-28T00:10:16.771Z,1.73
2023-04-28T00:11:19.169Z,2.90
2023-04-28T00:12:22.370Z,2.00
2023-04-28T00:13:24.732Z,2.60
2023-04-28T00:14:26.957Z,2.00
2023-04-28T00:15:30.068Z,3.00
2023-04-28T00:16:32.392Z,2.50
2023-04-28T00:17:34.932Z,3.00
2023-04-28T00:18:37.312Z,2.40
2023-04-28T00:19:39.600Z,2.80
2023-04-28T00:20:43.231Z,3.30
2023-04-28T00:21:45.603Z,2.90
2023-04-28T00:22:49.027Z,2.00
2023-04-28T00:23:51.439Z,3.50
2023-04-28T00:24:53.743Z,2.40
2023-04-28T00:25:56.943Z,1.90
2023-04-28T00:26:59.226Z,1.00
2023-04-28T00:28:02.288Z,2.90
2023-04-28T00:29:04.629Z,2.80
2023-04-28T00:30:08.771Z,2.00
2023-04-28T00:31:12.697Z,2.00
2023-04-28T00:32:15.813Z,2.30
2023-04-28T00:33:18.088Z,2.45
2023-04-28T00:34:20.897Z,2.30
2023-04-28T00:35:23.235Z,2.27
2023-04-28T00:36:26.146Z,3.00
2023-04-28T00:37:29.758Z,1.70
2023-04-28T00:38:31.978Z,2.90
2023-04-28T00:39:34.606Z,1.90
2023-04-28T00:40:38.950Z,1.70
2023-04-28T00:41:41.682Z,2.60
2023-04-28T00:42:44.368Z,2.00
2023-04-28T00:43:48.905Z,2.70
2023-04-28T00:44:52.328Z,2.30
2023-04-28T00:45:55.841Z,2.00
2023-04-28T00:46:59.248Z,2.50
2023-04-28T00:48:02.414Z,2.40
2023-04-28T00:49:05.451Z,2.00
2023-04-28T00:50:10.219Z,2.40
2023-04-28T00:51:13.054Z,2.60
2023-04-28T00:52:15.972Z,3.00
2023-04-28T00:53:18.556Z,3.00
2023-04-28T00:54:21.181Z,2.00
2023-04-28T00:55:26.022Z,3.40
2023-04-28T00:56:32.997Z,2.70
2023-04-28T00:57:36.685Z,1.60
2023-04-28T00:58:39.613Z,2.20
2023-04-28T00:59:42.028Z,1.64
2023-04-28T01:00:44.561Z,2.50
2023-04-28T01:01:46.869Z,2.30
2023-04-28T01:02:52.209Z,1.70
2023-04-28T01:03:55.549Z,2.50
2023-04-28T01:04:59.748Z,2.00
2023-04-28T01:06:02.805Z,1.90
2023-04-28T01:07:05.482Z,1.70
2023-04-28T01:08:07.916Z,2.20
2023-04-28T01:09:10.655Z,1.20
2023-04-28T01:10:16.114Z,2.20
2023-04-28T01:11:19.194Z,2.70
2023-04-28T01:12:41.592Z,2.60
2023-04-28T01:13:44.260Z,1.70
2023-04-28T01:14:47.865Z,2.18
2023-04-28T01:15:50.965Z,2.00
2023-04-28T01:16:54.166Z,2.50
2023-04-28T01:17:57.959Z,3.10
2023-04-28T01:19:01.097Z,1.90
2023-04-28T01:20:05.469Z,2.40
2023-04-28T01:21:07.839Z,2.00
2023-04-28T01:22:12.268Z,1.30
2023-04-28T01:23:15.913Z,2.10
2023-04-28T01:24:19.089Z,3.00
2023-04-28T01:25:21.716Z,2.90
2023-04-28T01:26:24.429Z,2.90
2023-04-28T01:27:26.530Z,2.20
2023-04-28T01:28:28.773Z,2.60
2023-04-28T01:29:31.107Z,2.60
2023-04-28T01:30:35.043Z,2.00
2023-04-28T01:31:37.635Z,2.90
2023-04-28T01:32:40.351Z,2.73
2023-04-28T01:33:42.754Z,2.90
2023-04-28T01:34:45.282Z,2.50
2023-04-28T01:35:48.002Z,3.40
2023-04-28T01:36:51.986Z,1.90
2023-04-28T01:37:54.386Z,2.00
2023-04-28T01:38:56.829Z,1.40
2023-04-28T01:39:59.156Z,1.90
2023-04-28T01:41:02.607Z,3.00
2023-04-28T01:42:05.509Z,1.00
2023-04-28T01:43:09.083Z,1.90
2023-04-28T01:44:12.631Z,1.40
2023-04-28T01:45:15.467Z,2.00
2023-04-28T01:46:18.809Z,2.10
2023-04-28T01:47:21.324Z,3.10
2023-04-28T01:48:23.939Z,2.20
2023-04-28T01:49:26.818Z,2.30
2023-04-28T01:50:29.360Z,1.20
2023-04-28T01:51:32.276Z,2.00
2023-04-28T01:52:35.786Z,2.80
2023-04-28T01:53:38.195Z,2.00
2023-04-28T01:54:41.015Z,2.10
2023-04-28T01:55:43.236Z,2.60
2023-04-28T01:56:46.210Z,2.55
2023-04-28T01:57:50.294Z,2.70
2023-04-28T01:58:53.077Z,2.70
2023-04-28T01:59:55.392Z,2.90
2023-04-28T02:00:58.925Z,3.00
2023-04-28T02:02:02.075Z,2.10
2023-04-28T02:03:05.159Z,2.73
2023-04-28T02:04:09.702Z,2.30
2023-04-28T02:05:12.656Z,2.30
2023-04-28T02:06:15.754Z,2.36
2023-04-28T02:07:18.849Z,2.09
2023-04-28T02:08:21.233Z,1.27
2023-04-28T02:09:23.454Z,3.00
2023-04-28T02:10:26.639Z,3.40
2023-04-28T02:11:29.989Z,3.20
2023-04-28T02:12:33.214Z,2.27
2023-04-28T02:13:36.195Z,3.10
2023-04-28T02:14:38.936Z,2.09
2023-04-28T02:15:42.678Z,0.36
2023-04-28T02:16:45.514Z,3.00
2023-04-28T02:17:48.649Z,2.70
2023-04-28T02:18:51.316Z,2.60
2023-04-28T02:19:58.051Z,2.70
2023-04-28T02:21:11.810Z,1.90
2023-04-28T02:22:16.760Z,2.80
2023-04-28T02:23:19.022Z,1.00
2023-04-28T02:24:21.601Z,3.00
2023-04-28T02:25:26.021Z,2.40
2023-04-28T02:26:28.732Z,4.09
2023-04-28T02:27:31.163Z,0.20
2023-04-28T02:28:34.054Z,3.90
2023-04-28T02:29:36.359Z,3.50
2023-04-28T02:30:39.148Z,3.00
2023-04-28T02:31:41.703Z,3.70
2023-04-28T02:32:44.166Z,5.10
2023-04-28T02:33:47.153Z,2.30
2023-04-28T02:34:54.851Z,3.40
2023-04-28T02:35:59.861Z,0.80
2023-04-28T02:37:02.592Z,2.90
2023-04-28T02:38:05.177Z,2.00
2023-04-28T02:39:07.463Z,2.90
2023-04-28T02:40:10.720Z,3.70
2023-04-28T02:41:15.050Z,3.90
2023-04-28T02:42:17.563Z,1.60
2023-04-28T02:43:20.083Z,2.20
2023-04-28T02:44:22.378Z,2.10
2023-04-28T02:45:25.022Z,3.20
2023-04-28T02:46:27.941Z,2.20
2023-04-28T02:47:30.540Z,3.55
2023-04-28T02:48:35.184Z,2.70
2023-04-28T02:49:37.591Z,1.80
2023-04-28T02:50:40.680Z,3.30
2023-04-28T02:51:43.088Z,3.91
2023-04-28T02:52:47.080Z,2.10
2023-04-28T02:53:50.156Z,1.50
2023-04-28T02:54:54.675Z,1.50
2023-04-28T02:55:56.967Z,2.70
2023-04-28T02:56:59.699Z,2.00
2023-04-28T02:58:02.560Z,2.40
2023-04-28T02:59:05.818Z,1.45
2023-04-28T03:00:09.871Z,2.50
2023-04-28T03:01:14.222Z,2.30
2023-04-28T03:02:16.747Z,2.50
2023-04-28T03:03:19.129Z,2.50
2023-04-28T03:04:22.642Z,2.55
2023-04-28T03:05:25.814Z,2.90
2023-04-28T03:06:29.600Z,1.73
2023-04-28T03:07:32.130Z,2.00
2023-04-28T03:08:35.558Z,3.20
2023-04-28T03:09:38.190Z,2.20
2023-04-28T03:10:41.664Z,2.10
2023-04-28T03:11:44.178Z,1.90
2023-04-28T03:12:46.743Z,1.60
2023-04-28T03:13:49.246Z,2.20
2023-04-28T03:14:51.633Z,3.30
2023-04-28T03:15:55.114Z,3.20
2023-04-28T03:16:59.158Z,2.80
2023-04-28T03:18:02.681Z,3.64
2023-04-28T03:19:07.520Z,2.20
2023-04-28T03:20:12.402Z,2.30
2023-04-28T03:21:14.974Z,0.20
2023-04-28T03:22:17.392Z,1.70
2023-04-28T03:23:19.613Z,1.40
2023-04-28T03:24:21.863Z,2.30
2023-04-28T03:25:26.117Z,2.70
2023-04-28T03:26:29.634Z,3.40
2023-04-28T03:27:34.019Z,2.20
2023-04-28T03:28:38.625Z,2.40
2023-04-28T03:29:41.182Z,2.40
2023-04-28T03:30:43.856Z,4.00
2023-04-28T03:31:46.540Z,2.80
2023-04-28T03:32:49.102Z,1.45
2023-04-28T03:33:51.703Z,2.00
2023-04-28T03:34:54.508Z,2.45
2023-04-28T03:35:56.918Z,3.00
2023-04-28T03:36:59.784Z,2.80
2023-04-28T03:38:04.434Z,3.00
2023-04-28T03:39:07.188Z,2.20
2023-04-28T03:40:11.302Z,2.40
2023-04-28T03:41:24.702Z,2.70
2023-04-28T03:42:31.467Z,2.40
2023-04-28T03:43:41.719Z,3.40
2023-04-28T03:44:49.472Z,2.90
2023-04-28T03:45:52.112Z,3.27
2023-04-28T03:46:54.926Z,2.80
2023-04-28T03:47:58.231Z,2.40
2023-04-28T03:49:03.313Z,2.00
2023-04-28T03:50:07.510Z,2.20
2023-04-28T03:51:11.224Z,1.20
2023-04-28T03:52:13.708Z,3.20
2023-04-28T03:53:16.797Z,3.00
2023-04-28T03:54:19.226Z,3.20
2023-04-28T03:55:21.754Z,2.40
2023-04-28T03:56:25.434Z,3.30
2023-04-28T03:57:28.161Z,2.80
2023-04-28T03:58:30.644Z,2.91
2023-04-28T03:59:32.890Z,2.50
2023-04-28T04:00:35.542Z,2.80
2023-04-28T04:01:39.486Z,3.30
2023-04-28T04:02:42.626Z,3.20
2023-04-28T04:03:46.157Z,2.30
2023-04-28T04:04:49.127Z,3.30
2023-04-28T04:05:53.050Z,1.91
2023-04-28T04:06:55.773Z,3.00
2023-04-28T04:07:59.911Z,2.40
2023-04-28T04:09:03.055Z,3.30
2023-04-28T04:10:06.854Z,3.40
2023-04-28T04:11:12.959Z,0.60
2023-04-28T04:12:15.456Z,1.80
2023-04-28T04:13:18.484Z,1.90
2023-04-28T04:14:20.963Z,2.64
2023-04-28T04:15:23.740Z,1.20
2023-04-28T04:16:26.773Z,3.00
2023-04-28T04:17:31.008Z,2.80
2023-04-28T04:18:33.634Z,2.90
2023-04-28T04:19:46.669Z,1.80
2023-04-28T04:20:49.883Z,2.60
2023-04-28T04:21:52.812Z,3.90
2023-04-28T04:22:55.420Z,2.27
2023-04-28T04:23:57.640Z,3.20
2023-04-28T04:24:59.855Z,1.30
2023-04-28T04:26:02.206Z,2.30
2023-04-28T04:27:04.845Z,4.30
2023-04-28T04:28:09.171Z,3.80
2023-04-28T04:29:11.298Z,3.60
2023-04-28T04:30:14.092Z,2.20
2023-04-28T04:31:18.416Z,2.60
2023-04-28T04:32:22.366Z,3.70
2023-04-28T04:33:25.240Z,4.30
2023-04-28T04:34:27.797Z,3.30
2023-04-28T04:35:31.840Z,2.82
2023-04-28T04:36:34.486Z,3.50
2023-04-28T04:37:37.792Z,1.00
2023-04-28T04:38:40.953Z,4.10
2023-04-28T04:39:52.841Z,2.50
2023-04-28T04:40:55.245Z,3.00
2023-04-28T04:41:58.071Z,1.70
2023-04-28T04:43:02.447Z,3.10
2023-04-28T04:44:06.722Z,3.00
2023-04-28T04:45:11.673Z,3.20
2023-04-28T04:46:14.351Z,2.40
2023-04-28T04:47:17.802Z,2.90
2023-04-28T04:48:22.363Z,2.80
2023-04-28T04:49:25.876Z,3.60
2023-04-28T04:50:29.086Z,2.90
2023-04-28T04:51:32.438Z,1.00
2023-04-28T04:52:35.391Z,2.91
2023-04-28T04:53:38.100Z,3.36
2023-04-28T04:54:41.788Z,1.00
2023-04-28T04:55:45.232Z,3.82
2023-04-28T04:56:47.825Z,4.00
2023-04-28T04:57:51.835Z,5.10
2023-04-28T04:59:13.144Z,3.00
2023-04-28T05:00:21.348Z,2.40
2023-04-28T05:01:24.017Z,2.10
2023-04-28T05:02:27.539Z,3.00
2023-04-28T05:03:30.826Z,3.30
2023-04-28T05:04:34.938Z,3.10
2023-04-28T05:05:38.378Z,4.64
2023-04-28T05:06:42.825Z,3.00
2023-04-28T05:07:46.445Z,3.20
2023-04-28T05:08:49.780Z,5.50
2023-04-28T05:09:53.774Z,4.80
2023-04-28T05:10:57.236Z,5.30
2023-04-28T05:12:00.950Z,4.40
2023-04-28T05:13:03.873Z,4.50
2023-04-28T05:14:06.359Z,5.27
2023-04-28T05:15:10.388Z,2.30
2023-04-28T05:16:14.795Z,5.20
2023-04-28T05:17:31.265Z,2.80
2023-04-28T05:18:33.988Z,4.20
2023-04-28T05:19:37.372Z,4.50
2023-04-28T05:20:40.199Z,3.60
2023-04-28T05:21:42.622Z,5.00
2023-04-28T05:22:45.673Z,2.40
2023-04-28T05:23:51.011Z,1.80
2023-04-28T05:24:53.870Z,2.70
2023-04-28T05:25:57.568Z,2.70
2023-04-28T05:27:01.250Z,2.00
2023-04-28T05:28:05.837Z,0.70
2023-04-28T05:29:08.213Z,1.80
2023-04-28T05:30:10.881Z,1.10
2023-04-28T05:31:13.812Z,2.20
2023-04-28T05:32:16.404Z,3.00
2023-04-28T05:33:19.364Z,2.82
2023-04-28T05:34:23.019Z,2.70
2023-04-28T05:35:26.494Z,2.20
2023-04-28T05:36:30.528Z,1.90
2023-04-28T05:37:33.548Z,1.80
2023-04-28T05:38:36.836Z,1.40
2023-04-28T05:39:39.409Z,2.60
2023-04-28T05:40:42.834Z,0.64
2023-04-28T05:41:47.637Z,2.80
2023-04-28T05:42:49.941Z,1.55
2023-04-28T05:43:52.369Z,2.80
2023-04-28T05:44:54.793Z,1.30
2023-04-28T05:45:58.679Z,0.90
2023-04-28T05:47:01.901Z,2.50
2023-04-28T05:48:04.860Z,2.00
2023-04-28T05:49:08.310Z,0.20
2023-04-28T05:50:13.252Z,1.60
2023-04-28T05:51:15.673Z,2.82
2023-04-28T05:52:17.996Z,1.00
2023-04-28T05:53:20.307Z,2.30
2023-04-28T05:54:22.832Z,2.50
2023-04-28T05:55:27.500Z,1.80
2023-04-28T05:56:30.456Z,2.90
2023-04-28T05:57:45.396Z,2.10
2023-04-28T05:58:39.224Z,2.40
2023-04-28T05:59:42.645Z,2.10
2023-04-28T06:00:45.719Z,0.50
2023-04-28T06:01:50.738Z,1.50
2023-04-28T06:02:54.189Z,3.50
2023-04-28T06:03:58.527Z,2.40
2023-04-28T06:05:01.241Z,3.00
2023-04-28T06:06:07.790Z,3.20
2023-04-28T06:07:09.223Z,1.50
2023-04-28T06:08:12.186Z,1.20
2023-04-28T06:09:14.801Z,2.36
2023-04-28T06:10:19.056Z,2.80
2023-04-28T06:11:22.715Z,0.30
2023-04-28T06:12:25.663Z,3.50
2023-04-28T06:13:28.465Z,5.30
2023-04-28T06:14:32.909Z,4.20
2023-04-28T06:15:35.541Z,3.50
2023-04-28T06:16:38.624Z,3.55
2023-04-28T06:17:41.873Z,2.70
2023-04-28T06:18:47.314Z,2.00
2023-04-28T06:19:52.028Z,2.90
2023-04-28T06:20:54.502Z,2.50
2023-04-28T06:21:56.900Z,2.00
2023-04-28T06:22:59.686Z,0.20
2023-04-28T06:24:02.205Z,1.00
2023-04-28T06:25:06.865Z,2.20
2023-04-28T06:26:13.406Z,0.00
2023-04-28T06:27:15.913Z,2.00
2023-04-28T06:28:18.222Z,1.20
2023-04-28T06:29:22.614Z,2.00
2023-04-28T06:30:25.104Z,1.00
2023-04-28T06:31:27.372Z,2.10
2023-04-28T06:32:29.947Z,2.30
2023-04-28T06:33:32.099Z,1.10
2023-04-28T06:34:36.900Z,2.20
2023-04-28T06:35:39.472Z,2.00
2023-04-28T06:36:42.379Z,2.00
2023-04-28T06:37:46.025Z,1.40
2023-04-28T06:38:49.359Z,1.90
2023-04-28T06:39:52.394Z,2.40
2023-04-28T06:40:55.373Z,1.70
2023-04-28T06:41:58.029Z,2.60
2023-04-28T06:43:03.211Z,2.60
2023-04-28T06:44:08.252Z,1.50
2023-04-28T06:45:11.569Z,1.30
2023-04-28T06:46:14.601Z,2.10
2023-04-28T06:47:18.549Z,1.20
2023-04-28T06:48:21.228Z,2.10
2023-04-28T06:49:23.904Z,2.60
2023-04-28T06:50:26.357Z,3.80
2023-04-28T06:51:28.351Z,2.50
2023-04-28T06:52:38.604Z,1.00
2023-04-28T06:53:36.049Z,1.60
2023-04-28T06:54:38.708Z,1.40
2023-04-28T06:55:43.613Z,2.00
2023-04-28T06:56:46.194Z,2.70
2023-04-28T06:57:48.522Z,2.90
2023-04-28T06:58:51.165Z,1.60
2023-04-28T06:59:53.281Z,2.20
2023-04-28T07:00:55.808Z,2.20
2023-04-28T07:01:58.061Z,2.50
2023-04-28T07:03:01.058Z,1.50
2023-04-28T07:04:03.799Z,1.00
2023-04-28T07:05:07.291Z,3.00
2023-04-28T07:06:10.858Z,1.60
2023-04-28T07:07:14.110Z,2.10
2023-04-28T07:08:17.057Z,2.00
2023-04-28T07:09:19.339Z,0.27
2023-04-28T07:10:21.459Z,1.60
2023-04-28T07:11:23.805Z,2.00
2023-04-28T07:12:27.038Z,2.30
2023-04-28T07:13:31.167Z,2.00
2023-04-28T07:14:33.532Z,1.70
2023-04-28T07:15:35.848Z,1.00
2023-04-28T07:16:38.632Z,0.40
2023-04-28T07:17:41.179Z,2.00
2023-04-28T07:18:43.441Z,1.20
2023-04-28T07:19:46.363Z,1.70
2023-04-28T07:20:48.872Z,1.73
2023-04-28T07:21:52.308Z,1.00
2023-04-28T07:22:55.055Z,2.00
2023-04-28T07:23:57.155Z,1.60
2023-04-28T07:24:59.590Z,2.00
2023-04-28T07:26:01.791Z,1.70
2023-04-28T07:27:04.540Z,0.00
2023-04-28T07:28:07.428Z,1.27
2023-04-28T07:29:11.799Z,2.00
2023-04-28T07:30:26.451Z,1.00
2023-04-28T07:31:18.860Z,1.40
2023-04-28T07:32:21.028Z,1.00
2023-04-28T07:33:23.706Z,1.30
2023-04-28T07:34:26.921Z,1.64
2023-04-28T07:35:29.164Z,3.00
2023-04-28T07:36:32.185Z,2.00
2023-04-28T07:37:34.466Z,1.18
2023-04-28T07:38:37.095Z,0.90
2023-04-28T07:39:40.029Z,1.70
2023-04-28T07:40:43.492Z,0.60
2023-04-28T07:41:46.154Z,1.10
2023-04-28T07:42:48.505Z,0.00
2023-04-28T07:43:50.826Z,1.00
2023-04-28T07:44:53.061Z,0.70
2023-04-28T07:45:55.587Z,1.10
2023-04-28T07:47:00.290Z,1.50
2023-04-28T07:48:03.104Z,1.00
2023-04-28T07:49:05.397Z,1.00
2023-04-28T07:50:09.794Z,0.00
2023-04-28T07:51:12.091Z,0.20
2023-04-28T07:52:14.944Z,0.90
2023-04-28T07:53:17.435Z,1.00
2023-04-28T07:54:19.890Z,1.10
2023-04-28T07:55:22.741Z,1.00
2023-04-28T07:56:25.718Z,1.73
2023-04-28T07:57:29.820Z,1.50
2023-04-28T07:58:33.204Z,2.00
2023-04-28T07:59:37.005Z,1.80
2023-04-28T08:00:41.016Z,1.80
2023-04-28T08:01:43.631Z,0.20
2023-04-28T08:02:45.915Z,1.50
2023-04-28T08:03:49.709Z,1.60
2023-04-28T08:04:56.842Z,1.70
2023-04-28T08:05:59.507Z,1.00
2023-04-28T08:07:05.351Z,1.90
2023-04-28T08:08:07.446Z,1.20
2023-04-28T08:09:09.815Z,0.70
2023-04-28T08:10:12.599Z,1.55
2023-04-28T08:11:14.805Z,1.40
2023-04-28T08:12:17.556Z,2.40
2023-04-28T08:13:19.855Z,1.00
2023-04-28T08:14:22.109Z,1.10
2023-04-28T08:15:25.406Z,1.20
2023-04-28T08:16:28.018Z,1.00
2023-04-28T08:17:30.996Z,1.00
2023-04-28T08:18:34.388Z,0.00
2023-04-28T08:19:37.836Z,1.00
2023-04-28T08:20:41.103Z,0.00
2023-04-28T08:21:43.360Z,1.00
2023-04-28T08:22:46.594Z,1.00
2023-04-28T08:23:49.280Z,1.70
2023-04-28T08:24:51.597Z,0.90
2023-04-28T08:25:54.219Z,0.50
2023-04-28T08:26:56.684Z,0.91
2023-04-28T08:27:58.901Z,0.00
2023-04-28T08:29:01.491Z,0.00
2023-04-28T08:30:05.315Z,1.70
2023-04-28T08:31:08.086Z,1.10
2023-04-28T08:32:10.978Z,0.82
2023-04-28T08:33:13.266Z,1.00
2023-04-28T08:34:16.844Z,1.00
2023-04-28T08:35:20.212Z,1.00
2023-04-28T08:36:25.069Z,0.80
2023-04-28T08:37:27.946Z,0.70
2023-04-28T08:38:30.667Z,0.00
2023-04-28T08:39:35.199Z,0.70
2023-04-28T08:40:37.916Z,1.30
2023-04-28T08:41:41.001Z,1.00
2023-04-28T08:42:45.986Z,1.36
2023-04-28T08:43:49.796Z,1.10
2023-04-28T08:44:57.312Z,1.10
2023-04-28T08:46:02.388Z,0.70
2023-04-28T08:47:14.203Z,9.20
2023-04-28T08:48:22.424Z,10.60
2023-04-28T08:49:28.832Z,5.00
2023-04-28T08:50:33.642Z,2.20
2023-04-28T08:51:42.059Z,1.90
2023-04-28T08:52:45.411Z,11.60
2023-04-28T08:55:02.609Z,5.30
2023-04-28T08:56:07.873Z,6.40
2023-04-28T08:57:10.793Z,6.20
2023-04-28T08:58:13.709Z,3.90
2023-04-28T08:59:17.669Z,2.00
2023-04-28T09:00:21.446Z,2.30
2023-04-28T09:01:25.667Z,0.60
2023-04-28T09:02:29.096Z,1.90
2023-04-28T09:03:33.615Z,1.20
2023-04-28T09:04:37.495Z,1.00
2023-04-28T09:05:40.496Z,1.90
2023-04-28T09:06:42.909Z,1.80
2023-04-28T09:07:49.937Z,1.00
2023-04-28T09:08:57.160Z,1.80
2023-04-28T09:10:21.682Z,1.80
2023-04-28T09:11:25.009Z,2.20
2023-04-28T09:13:52.611Z,1.40
2023-04-28T09:14:58.326Z,1.50
2023-04-28T09:16:02.402Z,0.70
2023-04-28T09:17:12.978Z,0.90
2023-04-28T09:18:15.897Z,1.40
2023-04-28T09:19:18.516Z,1.00
2023-04-28T09:20:22.382Z,1.00
2023-04-28T09:21:27.815Z,0.00
2023-04-28T09:22:33.214Z,0.00
2023-04-28T09:23:46.173Z,0.00
2023-04-28T09:24:48.534Z,1.50
2023-04-28T09:26:05.118Z,0.50
2023-04-28T09:27:10.909Z,1.00
2023-04-28T09:28:22.831Z,2.00
2023-04-28T09:29:25.774Z,0.80
2023-04-28T09:30:40.915Z,0.30
2023-04-28T09:31:43.634Z,0.70
2023-04-28T09:32:46.797Z,0.36
2023-04-28T09:33:59.996Z,0.50
2023-04-28T09:35:04.352Z,1.20
2023-04-28T09:36:07.402Z,1.10
2023-04-28T09:37:24.310Z,0.80
2023-04-28T09:38:27.163Z,2.10
2023-04-28T09:39:32.772Z,1.09
2023-04-28T09:40:58.947Z,1.20
2023-04-28T09:42:03.373Z,1.50
2023-04-28T09:43:18.979Z,1.80
2023-04-28T09:44:20.952Z,1.30
2023-04-28T09:45:24.800Z,1.60
2023-04-28T09:46:30.759Z,1.30
2023-04-28T09:47:37.890Z,0.80
2023-04-28T09:48:40.512Z,0.80
2023-04-28T09:49:56.553Z,0.90
2023-04-28T09:51:01.748Z,0.60
2023-04-28T09:52:13.107Z,0.00
2023-04-28T09:53:18.161Z,2.00
2023-04-28T09:54:23.014Z,1.00
2023-04-28T09:55:28.244Z,1.80
2023-04-28T09:56:32.614Z,0.60
2023-04-28T09:57:38.162Z,0.90
2023-04-28T09:58:42.479Z,1.10
2023-04-28T09:59:49.463Z,0.90
2023-04-28T10:00:59.866Z,1.00
2023-04-28T10:02:17.379Z,1.00
2023-04-28T10:03:11.179Z,1.00
2023-04-28T10:04:14.795Z,1.60
2023-04-28T10:05:17.827Z,0.80
2023-04-28T10:06:20.508Z,1.20
2023-04-28T10:07:22.844Z,1.00
2023-04-28T10:08:27.680Z,3.00
2023-04-28T10:09:32.077Z,1.90
2023-04-28T10:10:34.745Z,1.90
2023-04-28T10:11:38.742Z,0.82
2023-04-28T10:12:43.990Z,1.00
2023-04-28T10:13:47.204Z,1.10
2023-04-28T10:14:57.726Z,1.20
2023-04-28T10:16:05.527Z,0.60
2023-04-28T10:17:08.161Z,1.80
2023-04-28T10:19:33.785Z,2.60
2023-04-28T10:20:37.199Z,2.20
2023-04-28T10:21:49.303Z,2.20
2023-04-28T10:23:18.371Z,2.50
2023-04-28T10:24:25.357Z,1.70
2023-04-28T10:25:31.494Z,2.60
2023-04-28T10:26:56.900Z,1.30
2023-04-28T10:28:01.107Z,1.80
2023-04-28T10:29:03.405Z,0.50
2023-04-28T10:30:27.489Z,1.20
2023-04-28T10:31:23.622Z,1.20
2023-04-28T10:32:30.863Z,1.50
2023-04-28T10:33:33.797Z,2.30
2023-04-28T10:34:35.908Z,0.80
2023-04-28T10:35:46.001Z,1.30
2023-04-28T10:36:54.868Z,1.20
2023-04-28T10:38:13.752Z,0.80
2023-04-28T10:39:17.191Z,1.60
2023-04-28T10:40:38.322Z,1.30
2023-04-28T10:41:41.236Z,1.00
2023-04-28T10:42:56.388Z,2.18
2023-04-28T10:43:59.131Z,1.70
2023-04-28T10:45:02.499Z,2.00
2023-04-28T10:46:08.164Z,2.00
2023-04-28T10:47:11.234Z,1.50
2023-04-28T10:48:13.934Z,0.80
2023-04-28T10:49:18.581Z,0.00
2023-04-28T10:50:36.148Z,1.00
2023-04-28T10:51:28.898Z,0.80
2023-04-28T10:52:42.123Z,1.50
2023-04-28T10:53:51.888Z,1.90
2023-04-28T10:55:33.379Z,1.70
2023-04-28T10:56:35.748Z,1.00
2023-04-28T10:57:39.037Z,2.10
2023-04-28T10:58:43.240Z,1.40
2023-04-28T10:59:45.509Z,1.00
2023-04-28T11:00:49.077Z,0.20
2023-04-28T11:01:52.113Z,0.20
2023-04-28T11:02:55.631Z,0.50
2023-04-28T11:04:02.356Z,0.20
2023-04-28T11:05:12.064Z,1.70
2023-04-28T11:06:32.833Z,1.30
2023-04-28T11:07:35.609Z,1.80
2023-04-28T11:08:37.889Z,1.00
2023-04-28T11:09:44.064Z,1.80
2023-04-28T11:11:13.621Z,1.00
2023-04-28T11:12:16.130Z,0.00
2023-04-28T11:13:31.129Z,1.00
2023-04-28T11:14:35.896Z,1.30
2023-04-28T11:15:39.641Z,0.70
2023-04-28T11:16:56.224Z,1.00
2023-04-28T11:18:01.963Z,1.00
2023-04-28T11:19:05.504Z,1.60
2023-04-28T11:20:12.205Z,1.20
2023-04-28T11:21:15.104Z,1.00
2023-04-28T11:22:19.972Z,1.00
2023-04-28T11:23:23.826Z,1.20
2023-04-28T11:25:55.746Z,1.20
2023-04-28T11:26:59.798Z,0.60
2023-04-28T11:28:06.982Z,0.00
2023-04-28T11:29:10.704Z,0.80
2023-04-28T11:30:22.117Z,1.60
2023-04-28T11:31:26.894Z,0.10
2023-04-28T11:32:31.709Z,0.00
2023-04-28T11:33:37.905Z,0.50
2023-04-28T11:34:40.495Z,1.00
2023-04-28T11:35:43.326Z,0.50
2023-04-28T11:36:46.021Z,0.91
2023-04-28T11:37:52.487Z,1.10
2023-04-28T11:38:58.849Z,1.70
2023-04-28T11:40:12.589Z,1.00
2023-04-28T11:41:15.165Z,1.00
2023-04-28T11:42:17.827Z,0.60
2023-04-28T11:44:33.980Z,1.00
2023-04-28T11:45:36.554Z,0.20
2023-04-28T11:46:55.923Z,0.00
2023-04-28T11:48:00.075Z,0.00
2023-04-28T11:49:06.012Z,0.60
2023-04-28T11:50:08.792Z,0.00
2023-04-28T11:51:33.173Z,1.70
2023-04-28T11:52:36.589Z,0.70
2023-04-28T11:53:45.395Z,0.70
2023-04-28T11:55:01.565Z,0.50
2023-04-28T11:56:08.947Z,1.10
2023-04-28T11:57:20.878Z,1.00
2023-04-28T11:58:24.335Z,1.70
2023-04-28T11:59:34.191Z,1.10
2023-04-28T12:00:37.655Z,0.80
2023-04-28T12:01:55.327Z,1.60
2023-04-28T12:02:58.097Z,1.30
2023-04-28T12:04:01.842Z,1.80
2023-04-28T12:05:08.380Z,1.00
2023-04-28T12:06:10.954Z,1.00
2023-04-28T12:07:16.152Z,0.80
2023-04-28T12:08:29.392Z,0.60
2023-04-28T12:09:36.204Z,0.20
2023-04-28T12:10:38.577Z,0.80
2023-04-28T12:11:52.313Z,1.20
2023-04-28T12:12:54.980Z,0.00
2023-04-28T12:14:06.495Z,0.50
2023-04-28T12:15:09.913Z,1.00
2023-04-28T12:16:12.701Z,0.00
2023-04-28T12:17:26.790Z,0.60
2023-04-28T12:18:29.322Z,0.80
2023-04-28T12:19:35.109Z,2.00
2023-04-28T12:20:39.113Z,2.00
2023-04-28T12:21:42.160Z,1.10
2023-04-28T12:22:50.137Z,1.00
2023-04-28T12:23:53.074Z,1.50
2023-04-28T12:25:10.986Z,1.00
2023-04-28T12:26:13.983Z,1.00
2023-04-28T12:27:24.674Z,0.73
2023-04-28T12:28:41.372Z,1.00
2023-04-28T12:29:46.043Z,1.40
2023-04-28T12:30:54.037Z,0.20
2023-04-28T12:31:56.518Z,1.10
2023-04-28T12:32:59.642Z,0.80
2023-04-28T12:34:03.416Z,1.00
2023-04-28T12:35:07.152Z,0.70
2023-04-28T12:36:10.239Z,1.20
2023-04-28T12:37:13.734Z,1.00
2023-04-28T12:38:16.958Z,1.00
2023-04-28T12:39:19.452Z,1.10
2023-04-28T12:40:24.468Z,0.00
2023-04-28T12:41:26.809Z,1.70
2023-04-28T12:42:29.153Z,1.30
2023-04-28T12:43:31.646Z,0.80
2023-04-28T12:44:35.445Z,0.80
2023-04-28T12:45:39.016Z,0.40
2023-04-28T12:46:42.150Z,0.80
2023-04-28T12:47:45.829Z,1.00
2023-04-28T12:48:48.426Z,1.50
2023-04-28T12:49:52.658Z,1.40
2023-04-28T12:50:55.236Z,1.20
2023-04-28T12:51:57.578Z,0.00
2023-04-28T12:52:59.961Z,0.50
2023-04-28T12:54:04.246Z,1.00
2023-04-28T12:55:07.692Z,0.70
2023-04-28T12:56:10.304Z,0.40
2023-04-28T12:57:14.646Z,1.00
2023-04-28T12:58:19.059Z,0.30
2023-04-28T12:59:22.931Z,1.20
2023-04-28T13:00:25.896Z,1.80
2023-04-28T13:01:29.757Z,1.50
2023-04-28T13:02:33.510Z,1.40
2023-04-28T13:03:37.623Z,0.30
2023-04-28T13:04:42.496Z,0.40
2023-04-28T13:05:45.099Z,0.20
2023-04-28T13:06:48.335Z,0.90
2023-04-28T13:07:51.913Z,1.10
2023-04-28T13:08:55.618Z,1.40
2023-04-28T13:09:58.798Z,0.20
2023-04-28T13:11:04.911Z,1.10
2023-04-28T13:12:05.867Z,1.00
2023-04-28T13:13:09.120Z,1.10
2023-04-28T13:14:11.991Z,1.00
2023-04-28T13:15:14.289Z,1.09
2023-04-28T13:16:17.162Z,1.00
2023-04-28T13:17:19.637Z,0.00
2023-04-28T13:18:23.035Z,0.90
2023-04-28T13:19:26.903Z,0.60
2023-04-28T13:20:29.802Z,1.00
2023-04-28T13:21:32.050Z,1.20
2023-04-28T13:22:34.463Z,0.20
2023-04-28T13:23:36.885Z,0.50
2023-04-28T13:24:38.992Z,1.00
2023-04-28T13:25:41.417Z,0.00
2023-04-28T13:26:44.438Z,1.00
2023-04-28T13:27:47.138Z,1.00
2023-04-28T13:28:51.537Z,1.00
2023-04-28T13:29:56.086Z,0.00
2023-04-28T13:31:00.426Z,0.50
2023-04-28T13:32:02.578Z,0.50
2023-04-28T13:33:04.923Z,0.80
2023-04-28T13:34:08.458Z,0.70
2023-04-28T13:35:11.513Z,0.90
2023-04-28T13:36:13.998Z,0.60
2023-04-28T13:37:16.605Z,0.20
2023-04-28T13:38:21.222Z,1.00
2023-04-28T13:39:24.874Z,0.50
2023-04-28T13:40:28.386Z,1.00
2023-04-28T13:41:31.099Z,0.90
2023-04-28T13:42:33.538Z,0.00
2023-04-28T13:43:35.752Z,1.00
2023-04-28T13:44:37.812Z,1.11
2023-04-28T13:45:41.262Z,0.00
2023-04-28T13:46:51.937Z,0.60
2023-04-28T13:47:54.909Z,0.00
2023-04-28T13:48:57.678Z,1.00
2023-04-28T13:50:00.976Z,0.64
2023-04-28T13:51:04.359Z,0.20
2023-04-28T13:52:06.790Z,1.60
2023-04-28T13:53:09.523Z,0.20
2023-04-28T13:54:12.209Z,1.45
2023-04-28T13:55:14.986Z,0.00
2023-04-28T13:56:17.498Z,0.82
2023-04-28T13:57:20.341Z,1.50
2023-04-28T13:58:27.876Z,1.50
2023-04-28T13:59:30.388Z,1.00
2023-04-28T14:00:33.638Z,1.00
2023-04-28T14:01:36.293Z,1.70
2023-04-28T14:02:39.635Z,1.55
2023-04-28T14:03:43.638Z,1.20
2023-04-28T14:04:48.697Z,1.00
2023-04-28T14:05:52.961Z,0.20
2023-04-28T14:06:55.467Z,1.00
2023-04-28T14:07:57.799Z,0.40
2023-04-28T14:09:00.607Z,1.10
2023-04-28T14:10:04.521Z,0.80
2023-04-28T14:11:09.572Z,0.50
2023-04-28T14:12:13.350Z,0.80
2023-04-28T14:13:16.140Z,1.20
2023-04-28T14:14:18.579Z,1.00
2023-04-28T14:15:21.925Z,0.80
2023-04-28T14:16:24.967Z,0.50
2023-04-28T14:17:29.010Z,0.40
2023-04-28T14:18:33.224Z,1.00
2023-04-28T14:19:36.148Z,1.20
2023-04-28T14:20:38.937Z,1.60
2023-04-28T14:21:42.678Z,1.82
2023-04-28T14:22:44.864Z,1.00